Aviation Digital Data Service (ADDS)

Output produced by METARs form (1253 UTC 21 February 2018)
found at http://www.aviationweather.gov/adds/metars/
 
ESGG 211250Z 10005KT 9999 -SN FEW007 OVC014 M01/M03 Q1025 R03/19//95
ESGJ 211250Z 01006KT 9999 BKN011 M03/M05 Q1025 R19/790150
ESGT 211250Z 00000KT 9999 BKN014 M00/M03 Q1026
TAF AMD ESGT 211235Z 2112/2119 VRB02KT 9999 BKN035 
     PROB40 2112/2114 BKN013 
     PROB40 2115/2119 4000 -SN
       
ESMK 211250Z 31005KT 9999 SCT025 BKN040 03/M03 Q1026
ESMQ 211250Z 00000KT 3900 -SN FEW009 OVC016 M02/M03 Q1026
ESMS 211250Z 33005KT 9999 FEW020 SCT065 02/M02 Q1026 R17/09//95
ESMT 211250Z 22004KT 8000 -SN SCT015 BKN025 01/M00 Q1026
ESMX 211250Z 30005KT 260V340 7000 -SN FEW010 SCT021 BKN030 M01/M03 Q1025
ESOK 211220Z 02002KT 9999 BKN019 M04/M07 Q1027
ESTA 211250Z 29005KT 9999 FEW015 BKN029 OVC035 02/M02 Q1026
ESTL 211250Z AUTO 30008KT 9999NDV UP FEW019/// SCT043/// BKN061/// 02/M02 Q1026
ESMT 211250Z 22004KT 8000 -SN SCT015 BKN025 01/M00 Q1026
ESGJ 211250Z 01006KT 9999 BKN011 M03/M05 Q1025 R19/790150
ESMQ 211250Z 00000KT 3900 -SN FEW009 OVC016 M02/M03 Q1026
ESOK 211220Z 02002KT 9999 BKN019 M04/M07 Q1027
ESMK 211250Z 31005KT 9999 SCT025 BKN040 03/M03 Q1026
ESMX 211250Z 30005KT 260V340 7000 -SN FEW010 SCT021 BKN030 M01/M03 Q1025
ESGG 211250Z 10005KT 9999 -SN FEW007 OVC014 M01/M03 Q1025 R03/19//95
ESTL 211250Z AUTO 30008KT 9999NDV UP FEW019/// SCT043/// BKN061/// 02/M02 Q1026
ESMS 211250Z 33005KT 9999 FEW020 SCT065 02/M02 Q1026 R17/09//95
ESGT 211250Z 00000KT 9999 BKN014 M00/M03 Q1026
TAF AMD ESGT 211235Z 2112/2119 VRB02KT 9999 BKN035 
     PROB40 2112/2114 BKN013 
     PROB40 2115/2119 4000 -SN